Time;durP1;ratioP1;P1;durP2;ratioP2;P2;SDS_P1;SDS_P2;PMS_P1;PMS_P2;Temp;Humidity;BMP_temperature;BMP_pressure;BME280_temperature;BME280_humidity;BME280_pressure;Samples;Min_cycle;Max_cycle;Signal;HPM_P1;HPM_P2
2022/05/10 00:00:38;;;;;;;21.48;8.02;;;13.00;99.90;;;;;;4943085;28;20515;-82
2022/05/10 00:03:07;;;;;;;18.15;7.80;;;13.00;99.90;;;;;;4958574;28;20045;-86
2022/05/10 00:05:39;;;;;;;17.48;7.47;;;13.00;99.90;;;;;;4960134;28;20065;-86
2022/05/10 00:08:08;;;;;;;15.90;7.10;;;13.00;99.90;;;;;;4981438;28;20054;-84
2022/05/10 00:10:35;;;;;;;15.68;7.75;;;13.00;99.90;;;;;;4982541;28;20050;-80
2022/05/10 00:13:01;;;;;;;25.35;8.88;;;12.90;99.90;;;;;;4987406;28;20511;-85
2022/05/10 00:15:27;;;;;;;21.33;7.55;;;12.90;99.90;;;;;;4965857;28;20180;-77
2022/05/10 00:17:53;;;;;;;20.20;7.55;;;12.90;99.90;;;;;;4977262;28;20517;-85
2022/05/10 00:20:21;;;;;;;19.05;7.60;;;12.90;99.90;;;;;;4981089;28;20062;-85
2022/05/10 00:22:47;;;;;;;15.05;7.55;;;12.90;99.90;;;;;;4960945;28;20494;-80
2022/05/10 00:25:17;;;;;;;17.40;8.32;;;13.00;99.90;;;;;;4971644;28;20053;-81
2022/05/10 00:27:43;;;;;;;19.15;7.80;;;13.00;99.90;;;;;;4940381;28;20501;-81
2022/05/10 00:30:10;;;;;;;17.58;7.93;;;12.90;99.90;;;;;;4973866;28;20591;-83
2022/05/10 00:32:38;;;;;;;15.40;7.93;;;13.00;99.90;;;;;;4956871;28;20160;-83
2022/05/10 00:35:09;;;;;;;18.33;7.25;;;12.90;99.90;;;;;;4960700;28;20062;-84
2022/05/10 00:37:35;;;;;;;17.88;7.82;;;12.90;99.90;;;;;;4974057;28;20490;-80
2022/05/10 00:40:01;;;;;;;16.20;7.25;;;12.90;99.90;;;;;;4973741;28;20207;-81
2022/05/10 00:42:45;;;;;;;21.10;7.72;;;12.90;99.90;;;;;;4940230;28;20413;-86
2022/05/10 00:45:18;;;;;;;19.60;7.40;;;12.90;99.90;;;;;;4955345;28;20054;-81
2022/05/10 00:47:56;;;;;;;21.60;7.55;;;12.90;99.90;;;;;;4971827;28;20058;-83
2022/05/10 00:50:34;;;;;;;15.10;6.85;;;12.90;99.90;;;;;;4971798;28;20051;-80
2022/05/10 00:53:06;;;;;;;19.83;7.70;;;12.90;99.90;;;;;;4975422;28;20046;-83
2022/05/10 00:56:02;;;;;;;17.80;8.20;;;12.90;99.90;;;;;;4974267;28;20125;-82
2022/05/10 00:58:37;;;;;;;16.10;7.40;;;13.00;99.90;;;;;;4971955;28;20562;-85
2022/05/10 01:01:04;;;;;;;18.25;7.20;;;13.00;99.90;;;;;;4973322;28;20502;-80
2022/05/10 01:03:32;;;;;;;20.45;7.50;;;12.90;99.90;;;;;;4955550;28;20086;-82
2022/05/10 01:06:10;;;;;;;16.40;7.90;;;13.00;99.90;;;;;;4955515;28;20057;-80
2022/05/10 01:08:52;;;;;;;19.13;6.75;;;13.00;99.90;;;;;;4973857;28;20061;-78
2022/05/10 01:11:30;;;;;;;15.05;6.80;;;13.00;99.90;;;;;;4974861;28;20050;-84
2022/05/10 01:13:59;;;;;;;16.20;7.70;;;12.90;99.90;;;;;;4955757;28;20054;-83
2022/05/10 01:16:25;;;;;;;16.25;7.55;;;13.00;99.90;;;;;;4971511;28;20113;-81
2022/05/10 01:18:53;;;;;;;20.55;7.70;;;13.00;99.90;;;;;;4955289;28;20050;-79
2022/05/10 01:22:00;;;;;;;16.15;7.40;;;13.00;99.90;;;;;;4957164;28;20253;-81
2022/05/10 01:24:32;;;;;;;14.60;7.90;;;13.00;99.90;;;;;;4956517;28;20144;-79
2022/05/10 01:27:13;;;;;;;17.67;8.13;;;13.00;99.90;;;;;;4975146;28;20047;-84
2022/05/10 01:29:55;;;;;;;14.00;7.18;;;13.00;99.90;;;;;;4973265;28;20131;-79
2022/05/10 01:35:19;;;;;;;25.58;7.72;;;13.00;99.90;;;;;;4971730;28;20109;-84
2022/05/10 01:37:51;;;;;;;18.70;7.53;;;13.10;99.90;;;;;;4958180;28;20130;-81
2022/05/10 01:40:45;;;;;;;22.75;7.95;;;13.00;99.90;;;;;;4973028;28;20050;-82
2022/05/10 01:43:20;;;;;;;15.57;6.75;;;13.10;99.90;;;;;;4974934;28;20138;-79
2022/05/10 01:45:49;;;;;;;21.13;8.40;;;13.10;99.90;;;;;;4975030;28;20142;-82
2022/05/10 01:48:18;;;;;;;13.55;7.15;;;13.10;99.90;;;;;;4974634;28;20053;-79
2022/05/10 01:50:58;;;;;;;16.02;7.30;;;13.10;99.90;;;;;;4955738;28;20062;-85
2022/05/10 01:53:34;;;;;;;17.45;7.53;;;13.10;99.90;;;;;;4958169;28;20051;-84
2022/05/10 01:56:14;;;;;;;17.00;6.57;;;13.20;99.90;;;;;;4972480;28;20625;-85
2022/05/10 01:58:44;;;;;;;17.63;8.07;;;13.20;99.90;;;;;;4971282;28;20058;-86
2022/05/10 02:01:33;;;;;;;18.63;7.30;;;13.20;99.90;;;;;;4973476;28;20503;-85
2022/05/10 02:04:14;;;;;;;16.55;7.50;;;13.20;99.90;;;;;;4954851;28;20096;-82
2022/05/10 02:06:45;;;;;;;17.85;7.60;;;13.20;99.90;;;;;;4973059;28;20050;-82
2022/05/10 02:09:17;;;;;;;14.40;7.10;;;13.20;99.90;;;;;;4972948;28;20055;-84
2022/05/10 02:11:55;;;;;;;15.48;7.53;;;13.20;99.90;;;;;;4954794;28;20081;-82
2022/05/10 02:14:37;;;;;;;20.23;7.68;;;13.20;99.90;;;;;;4955263;28;20109;-82
2022/05/10 02:17:16;;;;;;;20.83;7.88;;;13.20;99.90;;;;;;4955030;28;20053;-84
2022/05/10 02:19:46;;;;;;;16.33;7.38;;;13.20;99.90;;;;;;4971841;28;20061;-83
2022/05/10 02:22:21;;;;;;;22.17;8.88;;;13.30;99.90;;;;;;4955759;28;20141;-81
2022/05/10 02:24:53;;;;;;;;;;;13.30;99.90;;;;;;4975843;28;20051;-84
2022/05/10 02:27:24;;;;;;;19.80;7.05;;;13.30;99.90;;;;;;4972505;28;19926;-82
2022/05/10 02:30:06;;;;;;;17.90;7.10;;;13.30;99.90;;;;;;4954519;28;20141;-84
2022/05/10 02:35:30;;;;;;;18.70;7.95;;;13.30;99.90;;;;;;4972332;28;20455;-81
2022/05/10 02:37:56;;;;;;;21.98;8.82;;;13.30;99.90;;;;;;4972594;28;20062;-83
2022/05/10 02:40:22;;;;;;;17.27;7.80;;;13.30;99.90;;;;;;4956291;28;20175;-85
2022/05/10 02:42:49;;;;;;;19.45;7.47;;;13.30;99.90;;;;;;4954607;28;20133;-84
2022/05/10 02:45:18;;;;;;;18.33;7.72;;;13.30;99.90;;;;;;4970519;28;20061;-84
2022/05/10 02:47:45;;;;;;;18.52;7.43;;;13.30;99.90;;;;;;4971587;28;20087;-81
2022/05/10 02:50:25;;;;;;;17.77;8.50;;;13.30;99.90;;;;;;4974813;28;20053;-84
2022/05/10 02:52:52;;;;;;;14.23;7.20;;;13.30;99.90;;;;;;4974079;28;20503;-83
2022/05/10 02:55:33;;;;;;;16.60;7.95;;;13.30;99.90;;;;;;4976054;28;20451;-79
2022/05/10 02:58:04;;;;;;;20.33;7.70;;;13.30;99.90;;;;;;4935589;28;20533;-80
2022/05/10 03:00:31;;;;;;;13.90;7.65;;;13.30;99.90;;;;;;4975609;28;20058;-82
2022/05/10 03:03:04;;;;;;;18.55;8.38;;;13.30;99.90;;;;;;4975361;28;20419;-78
2022/05/10 03:05:30;;;;;;;13.80;7.93;;;13.30;99.90;;;;;;4975285;28;20082;-78
2022/05/10 03:07:56;;;;;;;21.52;9.35;;;13.30;99.90;;;;;;4958318;28;20085;-79
2022/05/10 03:10:22;;;;;;;17.08;8.32;;;13.30;99.90;;;;;;4975365;28;20503;-84
2022/05/10 03:12:48;;;;;;;17.55;7.65;;;13.30;99.90;;;;;;4974535;28;20042;-79
2022/05/10 03:15:14;;;;;;;16.98;8.52;;;13.30;99.90;;;;;;4941444;28;20507;-83
2022/05/10 03:17:40;;;;;;;17.83;8.73;;;13.30;99.90;;;;;;4940892;28;20062;-83
2022/05/10 03:20:07;;;;;;;17.63;8.60;;;13.30;99.90;;;;;;4957291;28;20050;-84
2022/05/10 03:22:33;;;;;;;17.75;8.55;;;13.20;99.90;;;;;;4975351;28;20065;-80
2022/05/10 03:24:58;;;;;;;16.48;9.73;;;13.20;99.90;;;;;;4960311;28;20105;-80
2022/05/10 03:27:24;;;;;;;18.88;9.27;;;13.20;99.90;;;;;;4975243;28;20046;-84
2022/05/10 03:29:51;;;;;;;14.93;8.63;;;13.30;99.90;;;;;;4957785;28;20609;-81
2022/05/10 03:32:17;;;;;;;20.30;8.35;;;13.30;99.90;;;;;;4957176;28;20066;-81
2022/05/10 03:34:55;;;;;;;19.38;9.13;;;13.20;99.90;;;;;;4973477;28;20039;-78
2022/05/10 03:37:22;;;;;;;16.80;8.48;;;13.30;99.90;;;;;;4957174;28;20062;-78
2022/05/10 03:39:47;;;;;;;16.52;8.02;;;13.30;99.90;;;;;;4959622;28;20061;-83
2022/05/10 03:42:13;;;;;;;19.38;9.10;;;13.30;99.90;;;;;;4975649;28;20407;-83
2022/05/10 03:44:39;;;;;;;18.73;9.90;;;13.20;99.90;;;;;;4957062;28;20590;-82
2022/05/10 03:47:07;;;;;;;19.00;8.45;;;13.20;99.90;;;;;;4957044;28;20582;-80
2022/05/10 03:49:33;;;;;;;17.20;8.75;;;13.30;99.90;;;;;;4971752;28;20051;-82
2022/05/10 03:51:59;;;;;;;19.02;8.52;;;13.20;99.90;;;;;;4974421;28;20059;-79
2022/05/10 03:54:25;;;;;;;18.05;8.43;;;13.20;99.90;;;;;;4974922;28;20051;-82
2022/05/10 03:56:51;;;;;;;19.13;9.23;;;13.20;99.90;;;;;;4959320;28;20066;-82
2022/05/10 03:59:19;;;;;;;21.10;9.07;;;13.20;99.90;;;;;;4974416;28;20047;-84
2022/05/10 04:01:46;;;;;;;23.00;10.65;;;13.20;99.90;;;;;;4957280;28;20054;-80
2022/05/10 04:04:11;;;;;;;24.85;9.60;;;13.20;99.90;;;;;;4974259;28;20112;-82
2022/05/10 04:06:37;;;;;;;21.77;9.45;;;13.20;99.90;;;;;;4957071;28;20058;-80
2022/05/10 04:09:04;;;;;;;17.77;9.15;;;13.20;99.90;;;;;;4975483;28;20055;-78
2022/05/10 04:11:30;;;;;;;19.45;10.80;;;13.30;99.90;;;;;;4975012;28;20050;-78
2022/05/10 04:13:56;;;;;;;20.88;10.15;;;13.30;99.90;;;;;;4974386;28;20387;-78
2022/05/10 04:16:22;;;;;;;18.50;9.35;;;13.30;99.90;;;;;;4973572;28;20069;-78
2022/05/10 04:18:48;;;;;;;23.10;9.70;;;13.30;99.90;;;;;;4973637;28;20090;-79
2022/05/10 04:21:14;;;;;;;17.98;10.00;;;13.30;99.90;;;;;;4975006;28;20051;-80
2022/05/10 04:23:40;;;;;;;21.55;9.73;;;13.30;99.90;;;;;;4956859;28;20109;-82
2022/05/10 04:26:08;;;;;;;23.50;10.75;;;13.30;99.90;;;;;;4975203;28;20055;-79
2022/05/10 04:28:36;;;;;;;18.80;9.50;;;13.40;99.90;;;;;;4974224;28;20158;-78
2022/05/10 04:31:02;;;;;;;19.50;9.23;;;13.40;99.90;;;;;;4973550;28;20110;-77
2022/05/10 04:33:29;;;;;;;27.20;10.40;;;13.40;99.90;;;;;;4940627;28;20047;-82
2022/05/10 04:35:54;;;;;;;20.52;10.65;;;13.40;99.90;;;;;;4957016;28;20085;-82
2022/05/10 04:38:20;;;;;;;20.88;10.10;;;13.40;99.90;;;;;;4958393;28;20093;-81
2022/05/10 04:43:34;;;;;;;22.27;9.45;;;13.50;99.90;;;;;;4959283;28;20055;-78
2022/05/10 04:46:00;;;;;;;19.13;9.60;;;13.50;99.90;;;;;;4958711;28;20105;-80
2022/05/10 04:48:25;;;;;;;22.83;11.57;;;13.60;99.90;;;;;;4957426;28;20097;-81
2022/05/10 04:50:52;;;;;;;18.17;9.85;;;13.60;99.90;;;;;;4958503;28;20050;-81
2022/05/10 04:53:18;;;;;;;22.23;9.95;;;13.70;99.90;;;;;;4958146;28;20054;-80
2022/05/10 04:55:44;;;;;;;17.58;9.40;;;13.70;99.90;;;;;;4973558;28;20121;-82
2022/05/10 04:58:09;;;;;;;21.33;10.07;;;13.80;99.90;;;;;;4973411;28;20057;-77
2022/05/10 05:00:35;;;;;;;16.58;9.82;;;13.80;99.90;;;;;;4973248;28;20447;-83
2022/05/10 05:03:01;;;;;;;18.38;9.68;;;13.90;99.90;;;;;;4973148;28;20486;-84
2022/05/10 05:05:27;;;;;;;19.90;9.10;;;13.90;99.90;;;;;;4973694;28;20054;-82
2022/05/10 05:07:53;;;;;;;20.98;9.82;;;13.90;99.90;;;;;;4957739;28;20102;-81
2022/05/10 05:10:19;;;;;;;16.85;9.20;;;13.90;99.90;;;;;;4974563;28;20047;-84
2022/05/10 05:12:45;;;;;;;17.30;9.73;;;14.00;99.90;;;;;;4955377;28;20085;-83
2022/05/10 05:15:12;;;;;;;16.20;9.45;;;14.00;99.90;;;;;;4956190;28;20483;-78
2022/05/10 05:17:38;;;;;;;17.67;9.77;;;14.10;99.90;;;;;;4955281;28;20438;-80
2022/05/10 05:20:05;;;;;;;19.80;10.00;;;14.10;99.90;;;;;;4973043;28;20078;-83
2022/05/10 05:22:31;;;;;;;20.02;9.75;;;14.10;99.90;;;;;;4977041;28;20376;-80
2022/05/10 05:24:57;;;;;;;20.48;9.63;;;14.20;99.90;;;;;;4940230;28;20061;-81
2022/05/10 05:27:23;;;;;;;17.92;10.02;;;14.30;99.90;;;;;;4977468;28;20051;-81
2022/05/10 05:29:49;;;;;;;19.45;9.77;;;14.30;99.90;;;;;;4976678;28;20047;-78
2022/05/10 05:32:19;;;;;;;21.52;10.73;;;14.40;99.90;;;;;;4956384;28;20086;-84
2022/05/10 05:34:48;;;;;;;21.17;10.02;;;14.40;99.90;;;;;;4973307;28;20043;-80
2022/05/10 05:39:58;;;;;;;16.40;9.40;;;14.50;99.90;;;;;;4972914;28;20047;-78
2022/05/10 05:42:24;;;;;;;17.85;9.75;;;14.60;99.90;;;;;;4976954;28;20050;-79
2022/05/10 05:44:50;;;;;;;17.70;9.55;;;14.60;99.90;;;;;;4972563;28;20058;-81
2022/05/10 05:47:16;;;;;;;20.27;9.60;;;14.70;99.90;;;;;;4973652;28;20394;-82
2022/05/10 05:49:42;;;;;;;17.65;9.73;;;14.70;99.90;;;;;;4972719;28;20051;-81
2022/05/10 05:52:08;;;;;;;24.05;11.30;;;14.80;99.90;;;;;;4972271;28;20134;-82
2022/05/10 05:54:34;;;;;;;20.70;10.18;;;14.80;99.90;;;;;;4972878;28;20058;-84
2022/05/10 05:57:04;;;;;;;15.73;9.23;;;14.90;99.90;;;;;;4938760;28;20110;-78
2022/05/10 05:59:30;;;;;;;18.75;9.75;;;14.90;99.90;;;;;;4954746;28;20058;-79
2022/05/10 06:01:57;;;;;;;25.02;10.52;;;15.00;99.90;;;;;;4973095;28;20388;-79
2022/05/10 06:04:23;;;;;;;16.98;9.40;;;15.10;99.90;;;;;;4971645;28;20130;-78
2022/05/10 06:06:49;;;;;;;20.95;9.48;;;15.20;99.90;;;;;;4973001;28;20517;-78
2022/05/10 06:09:15;;;;;;;17.95;8.90;;;15.20;99.90;;;;;;4955389;28;20403;-80
2022/05/10 06:11:41;;;;;;;16.63;9.90;;;15.40;99.90;;;;;;4972221;28;20574;-83
2022/05/10 06:14:07;;;;;;;19.80;9.95;;;15.40;99.90;;;;;;4972509;28;20062;-81
2022/05/10 06:16:33;;;;;;;30.63;9.40;;;15.50;99.90;;;;;;4972232;28;20114;-84
2022/05/10 06:18:59;;;;;;;16.73;9.80;;;15.60;99.90;;;;;;4954811;28;20137;-79
2022/05/10 06:21:25;;;;;;;18.58;9.18;;;15.70;99.90;;;;;;4954880;28;20078;-78
2022/05/10 06:23:52;;;;;;;20.30;9.77;;;15.90;99.90;;;;;;4973933;28;20047;-77
2022/05/10 06:26:17;;;;;;;15.38;8.82;;;16.00;99.90;;;;;;4958393;28;20760;-78
2022/05/10 06:28:43;;;;;;;14.95;8.63;;;16.20;99.90;;;;;;4958496;28;20051;-80
2022/05/10 06:31:09;;;;;;;14.32;8.35;;;16.30;99.90;;;;;;4958336;28;20061;-83
2022/05/10 06:33:36;;;;;;;15.50;8.75;;;16.40;99.90;;;;;;4958566;28;20062;-78
2022/05/10 06:36:03;;;;;;;15.10;8.10;;;16.50;99.90;;;;;;4977024;28;20085;-81
2022/05/10 06:38:30;;;;;;;15.52;8.75;;;16.60;99.90;;;;;;4976256;28;20458;-80
2022/05/10 06:41:00;;;;;;;15.27;8.07;;;16.70;99.90;;;;;;4958299;28;20047;-78
2022/05/10 06:43:26;;;;;;;17.52;7.72;;;16.80;99.90;;;;;;4958031;28;20198;-81
2022/05/10 06:45:53;;;;;;;12.45;8.27;;;16.80;99.90;;;;;;4975613;28;20173;-78
2022/05/10 06:48:19;;;;;;;12.85;7.18;;;16.90;99.90;;;;;;4958219;28;20070;-77
2022/05/10 06:50:46;;;;;;;12.52;8.73;;;16.90;99.90;;;;;;4951464;28;20503;-79
2022/05/10 06:53:12;;;;;;;17.38;9.07;;;16.90;99.90;;;;;;4958078;28;20055;-78
2022/05/10 06:55:38;;;;;;;16.42;7.88;;;17.00;99.90;;;;;;4957950;28;21003;-82
2022/05/10 06:58:05;;;;;;;13.55;8.02;;;17.10;99.90;;;;;;4957447;28;20062;-80
2022/05/10 07:00:37;;;;;;;15.43;8.73;;;17.10;99.90;;;;;;4957681;28;20050;-81
2022/05/10 07:03:05;;;;;;;14.00;8.25;;;17.20;99.90;;;;;;4959617;28;20410;-81
2022/05/10 07:05:31;;;;;;;13.18;8.05;;;17.20;99.90;;;;;;4979592;28;20046;-81
2022/05/10 07:07:57;;;;;;;17.17;8.07;;;17.30;99.90;;;;;;4959948;28;20538;-79
2022/05/10 07:10:22;;;;;;;18.02;8.55;;;17.30;99.90;;;;;;4960815;28;20050;-82
2022/05/10 07:12:48;;;;;;;14.88;8.10;;;17.40;99.90;;;;;;4960388;28;20495;-83
2022/05/10 07:15:18;;;;;;;14.90;8.05;;;17.40;99.90;;;;;;4958380;28;20422;-82
2022/05/10 07:17:44;;;;;;;15.98;7.93;;;17.40;99.90;;;;;;4975212;28;20051;-85
2022/05/10 07:20:12;;;;;;;11.55;6.65;;;17.50;99.90;;;;;;4974884;28;20054;-84
2022/05/10 07:22:38;;;;;;;11.25;6.90;;;17.40;99.90;;;;;;4975668;28;20070;-83
2022/05/10 07:25:05;;;;;;;12.05;6.60;;;17.50;99.90;;;;;;4958559;28;20101;-86
2022/05/10 07:27:31;;;;;;;13.07;6.65;;;17.50;99.90;;;;;;4941164;28;20490;-82
2022/05/10 07:29:57;;;;;;;11.60;6.97;;;17.60;99.90;;;;;;4957166;28;20059;-81
2022/05/10 07:32:24;;;;;;;13.23;6.75;;;17.70;99.90;;;;;;4975048;28;20117;-84
2022/05/10 07:34:50;;;;;;;14.95;6.85;;;17.80;99.90;;;;;;4974513;28;20058;-82
2022/05/10 07:37:16;;;;;;;8.98;5.68;;;17.90;99.90;;;;;;4942415;28;20138;-81
2022/05/10 07:39:42;;;;;;;9.40;5.35;;;17.90;99.90;;;;;;4976074;28;20062;-82
2022/05/10 07:42:09;;;;;;;13.45;6.40;;;18.00;99.90;;;;;;4974885;28;20051;-81
2022/05/10 07:44:35;;;;;;;16.85;5.45;;;18.10;99.90;;;;;;4974757;28;20043;-81
2022/05/10 07:47:00;;;;;;;12.82;5.43;;;18.20;99.90;;;;;;4974214;28;20058;-82
2022/05/10 07:49:26;;;;;;;14.55;5.20;;;18.20;99.90;;;;;;4956948;28;20062;-83
2022/05/10 07:51:53;;;;;;;13.63;5.90;;;18.30;99.90;;;;;;4957236;28;20066;-84
2022/05/10 07:54:19;;;;;;;9.27;4.72;;;18.40;99.90;;;;;;4942233;28;20057;-79
2022/05/10 07:56:45;;;;;;;16.50;6.72;;;18.50;99.90;;;;;;4976645;28;20051;-85
2022/05/10 07:59:12;;;;;;;13.35;5.63;;;18.50;99.90;;;;;;4974491;28;20057;-85
2022/05/10 08:01:38;;;;;;;11.05;5.85;;;18.60;99.90;;;;;;4974048;28;20050;-81
2022/05/10 08:04:04;;;;;;;10.43;6.05;;;18.70;99.90;;;;;;4941085;28;20517;-81
2022/05/10 08:06:30;;;;;;;19.77;7.15;;;18.70;99.90;;;;;;4956544;28;20531;-83
2022/05/10 08:08:56;;;;;;;14.02;7.13;;;18.80;99.90;;;;;;4956462;28;20054;-79
2022/05/10 08:11:22;;;;;;;17.00;7.63;;;18.90;99.90;;;;;;4958170;28;20059;-84
2022/05/10 08:13:48;;;;;;;17.05;7.63;;;18.90;99.90;;;;;;4956736;28;20573;-81
2022/05/10 08:16:15;;;;;;;20.23;6.53;;;18.90;99.90;;;;;;4956349;28;20145;-82
2022/05/10 08:18:45;;;;;;;13.63;6.05;;;19.00;99.90;;;;;;4973787;28;20062;-79
2022/05/10 08:21:11;;;;;;;11.68;6.43;;;19.10;99.90;;;;;;4956270;28;20562;-83
2022/05/10 08:23:38;;;;;;;11.57;6.25;;;19.20;99.90;;;;;;4973579;28;20051;-82
2022/05/10 08:26:06;;;;;;;13.18;6.35;;;19.30;99.90;;;;;;4940535;28;20175;-80
2022/05/10 08:28:34;;;;;;;11.00;5.68;;;19.40;99.50;;;;;;4957330;28;20141;-79
2022/05/10 08:31:03;;;;;;;11.27;5.15;;;19.50;99.30;;;;;;4956094;28;20522;-82
2022/05/10 08:33:31;;;;;;;8.73;5.55;;;19.70;99.00;;;;;;4973411;28;20117;-83
2022/05/10 08:35:58;;;;;;;11.13;5.22;;;19.80;98.80;;;;;;4956283;28;20125;-82
2022/05/10 08:38:25;;;;;;;11.02;5.10;;;19.80;98.70;;;;;;4940233;28;20510;-83
2022/05/10 08:41:13;;;;;;;10.82;4.70;;;19.90;98.90;;;;;;4973589;28;20101;-81
2022/05/10 08:43:42;;;;;;;10.15;4.78;;;19.90;98.30;;;;;;4973076;28;20502;-83
2022/05/10 08:46:18;;;;;;;10.68;4.68;;;20.00;97.90;;;;;;4955659;28;20058;-80
2022/05/10 08:48:50;;;;;;;9.77;5.15;;;20.00;97.40;;;;;;4974255;28;20046;-83
2022/05/10 08:51:16;;;;;;;11.10;5.47;;;20.10;97.40;;;;;;4956183;28;20050;-82
2022/05/10 08:53:42;;;;;;;13.48;4.97;;;20.20;97.40;;;;;;4955856;28;20521;-82
2022/05/10 08:56:21;;;;;;;8.20;4.72;;;20.20;96.70;;;;;;4940402;28;20046;-81
2022/05/10 08:58:53;;;;;;;11.90;5.05;;;20.40;96.70;;;;;;4939731;28;20090;-83
2022/05/10 09:01:26;;;;;;;12.02;4.13;;;20.50;96.70;;;;;;4955560;28;20491;-79
2022/05/10 09:04:29;;;;;;;11.07;4.60;;;20.50;96.50;;;;;;4956812;28;20522;-82
2022/05/10 09:07:24;;;;;;;9.27;3.63;;;20.60;95.90;;;;;;4955892;28;20507;-80
2022/05/10 09:10:14;;;;;;;11.30;4.05;;;20.60;95.10;;;;;;4955573;28;20062;-80
2022/05/10 09:12:53;;;;;;;8.95;3.95;;;20.70;94.50;;;;;;4973047;28;20059;-81
2022/05/10 09:15:20;;;;;;;10.93;4.20;;;20.70;94.50;;;;;;4973203;28;20055;-81
2022/05/10 09:17:45;;;;;;;10.40;4.32;;;20.80;94.50;;;;;;4972889;28;20086;-82
2022/05/10 09:20:12;;;;;;;11.40;4.20;;;20.80;94.80;;;;;;4956511;28;20078;-80
2022/05/10 09:22:55;;;;;;;8.73;4.40;;;20.90;95.00;;;;;;4974978;28;20134;-80
2022/05/10 09:25:34;;;;;;;9.55;4.43;;;21.00;95.10;;;;;;4972723;28;20050;-79
2022/05/10 09:28:26;;;;;;;16.42;5.63;;;21.00;94.90;;;;;;4955090;28;20051;-79
2022/05/10 09:36:29;;;;;;;;;;;21.30;94.80;;;;;;4955085;28;20124;-80
2022/05/10 09:39:12;;;;;;;11.45;4.63;;;21.30;94.60;;;;;;4972279;28;19925;-79
2022/05/10 09:41:42;;;;;;;9.52;5.22;;;21.30;94.60;;;;;;4972346;28;20049;-81
2022/05/10 09:44:21;;;;;;;9.98;4.80;;;21.30;94.80;;;;;;4939220;28;20065;-82
2022/05/10 09:46:48;;;;;;;10.38;5.53;;;21.30;95.10;;;;;;4954561;28;20511;-82
2022/05/10 09:49:31;;;;;;;13.05;4.97;;;21.30;95.00;;;;;;4954865;28;20050;-78
2022/05/10 09:51:59;;;;;;;10.23;5.53;;;21.30;94.80;;;;;;4972173;28;20054;-81
2022/05/10 09:54:32;;;;;;;12.13;5.78;;;21.30;95.20;;;;;;4955075;28;20063;-80
2022/05/10 09:56:59;;;;;;;14.00;5.10;;;21.40;95.40;;;;;;4938787;28;20058;-83
2022/05/10 09:59:44;;;;;;;12.00;5.75;;;21.40;95.10;;;;;;4974181;28;20126;-84
2022/05/10 10:02:10;;;;;;;9.98;5.40;;;21.30;95.30;;;;;;4972648;28;20128;-81
2022/05/10 10:04:39;;;;;;;15.02;5.95;;;21.30;96.10;;;;;;4971885;28;20852;-82
2022/05/10 10:07:16;;;;;;;10.20;5.35;;;21.30;95.70;;;;;;4954738;28;20528;-85
2022/05/10 10:09:47;;;;;;;12.20;5.45;;;21.40;95.20;;;;;;4954906;28;20058;-80
2022/05/10 10:12:40;;;;;;;14.82;5.55;;;21.50;95.20;;;;;;4971984;28;20051;-83
2022/05/10 10:15:29;;;;;;;11.10;5.05;;;21.40;93.80;;;;;;4954938;28;20042;-84
2022/05/10 10:17:58;;;;;;;10.75;5.68;;;21.40;95.10;;;;;;4955770;28;20047;-83
2022/05/10 10:20:32;;;;;;;12.52;6.32;;;21.40;94.60;;;;;;4971713;28;20082;-84
2022/05/10 10:23:07;;;;;;;15.73;6.53;;;21.30;95.20;;;;;;4954805;28;20105;-83
2022/05/10 10:25:44;;;;;;;10.23;6.10;;;21.30;95.50;;;;;;4971761;28;20058;-80
2022/05/10 10:28:15;;;;;;;11.73;6.25;;;21.20;96.40;;;;;;4972049;28;20058;-81
2022/05/10 10:30:45;;;;;;;10.82;6.88;;;21.20;96.00;;;;;;4954714;28;20061;-84
2022/05/10 10:33:21;;;;;;;11.02;6.50;;;21.20;95.80;;;;;;4973697;28;20051;-81
2022/05/10 10:35:55;;;;;;;12.40;6.68;;;21.20;96.10;;;;;;4958975;28;20141;-83
2022/05/10 10:38:44;;;;;;;13.50;6.82;;;21.10;96.30;;;;;;4940289;28;20051;-83
2022/05/10 10:41:21;;;;;;;11.93;6.55;;;21.10;95.90;;;;;;4971813;28;20081;-84
2022/05/10 10:44:04;;;;;;;11.85;6.00;;;21.00;96.40;;;;;;4956033;28;20831;-85
2022/05/10 10:47:21;;;;;;;13.32;6.32;;;21.10;96.40;;;;;;4968718;28;20577;-82
2022/05/10 10:50:24;;;;;;;10.60;6.85;;;21.00;96.40;;;;;;4917821;29;20064;-83
2022/05/10 10:52:54;;;;;;;13.43;6.85;;;20.90;96.70;;;;;;4930047;29;20059;-84
2022/05/10 10:55:22;;;;;;;15.30;7.50;;;20.90;97.40;;;;;;4955416;29;20063;-85
2022/05/10 10:58:09;;;;;;;15.90;7.40;;;20.90;97.20;;;;;;4952574;28;20138;-86
2022/05/10 11:00:46;;;;;;;15.55;7.65;;;21.00;96.70;;;;;;4952291;28;20200;-86
2022/05/10 11:03:20;;;;;;;14.55;8.18;;;21.00;97.20;;;;;;4952059;28;20538;-84
2022/05/10 11:05:52;;;;;;;15.35;8.88;;;21.10;97.70;;;;;;4951687;29;20138;-86
2022/05/10 11:08:34;;;;;;;17.08;8.95;;;21.10;97.10;;;;;;4935097;29;20047;-86
2022/05/10 11:11:12;;;;;;;12.05;8.25;;;21.20;97.70;;;;;;4937890;29;20051;-81
2022/05/10 11:13:54;;;;;;;12.05;7.88;;;21.10;97.30;;;;;;4957819;28;20438;-84
2022/05/10 11:16:32;;;;;;;18.77;9.00;;;21.10;97.00;;;;;;4955967;29;20098;-87
2022/05/10 11:19:16;;;;;;;18.17;8.38;;;21.00;97.40;;;;;;4970554;28;20055;-83
2022/05/10 11:22:07;;;;;;;12.93;7.88;;;20.90;98.10;;;;;;4938188;29;20054;-84
2022/05/10 11:25:06;;;;;;;12.98;8.23;;;21.00;97.50;;;;;;4955876;29;20110;-82
2022/05/10 11:27:53;;;;;;;15.68;8.65;;;21.00;98.30;;;;;;4957252;29;20074;-87
2022/05/10 11:30:28;;;;;;;13.07;7.75;;;21.00;98.60;;;;;;4955166;29;20055;-85
2022/05/10 11:32:59;;;;;;;;;;;21.10;99.60;;;;;;4956156;29;20502;-85
2022/05/10 11:35:44;;;;;;;15.35;8.63;;;20.90;99.90;;;;;;4953844;29;19934;-86
2022/05/10 11:38:13;;;;;;;;;;;21.00;99.90;;;;;;4955699;29;20070;-86
2022/05/10 11:40:57;;;;;;;15.50;5.80;;;20.90;96.90;;;;;;4955482;29;20013;-85
2022/05/10 11:43:43;;;;;;;14.95;5.13;;;21.00;97.20;;;;;;4957549;29;20062;-87
2022/05/10 11:46:43;;;;;;;12.18;4.68;;;20.90;96.70;;;;;;4968066;28;20085;-85
2022/05/10 11:49:36;;;;;;;11.60;4.40;;;20.80;96.30;;;;;;4974619;28;20050;-89
2022/05/10 11:52:28;;;;;;;12.27;4.90;;;20.70;96.70;;;;;;4974764;28;20101;-83
2022/05/10 11:55:19;;;;;;;8.63;4.57;;;20.80;96.70;;;;;;4959478;28;20537;-87
2022/05/10 11:57:45;;;;;;;16.27;5.00;;;20.90;97.70;;;;;;4974544;28;20431;-85
2022/05/10 12:00:26;;;;;;;12.55;4.50;;;20.90;97.60;;;;;;4957240;28;20082;-87
2022/05/10 12:02:55;;;;;;;6.47;3.72;;;21.10;96.70;;;;;;4974740;28;20404;-83
2022/05/10 12:05:33;;;;;;;9.07;4.35;;;21.20;96.20;;;;;;4974197;28;20098;-84
2022/05/10 12:08:01;;;;;;;10.75;3.00;;;21.20;95.70;;;;;;4976217;28;20328;-84
2022/05/10 12:10:38;;;;;;;12.80;3.42;;;21.40;94.90;;;;;;4957431;28;20055;-88
2022/05/10 12:22:11;;;;;;;8.25;2.63;;;21.40;93.40;;;;;;4974132;28;20050;-83
2022/05/10 12:24:43;;;;;;;5.65;2.38;;;21.30;92.40;;;;;;4977337;28;20054;-86
2022/05/10 12:27:12;;;;;;;9.02;2.40;;;21.20;91.60;;;;;;4974155;28;20168;-86
2022/05/10 12:29:38;;;;;;;4.75;1.67;;;21.10;91.10;;;;;;4974000;28;20411;-79
2022/05/10 12:32:36;;;;;;;12.00;3.05;;;21.00;91.50;;;;;;4940350;28;20069;-82
2022/05/10 12:35:26;;;;;;;10.60;2.90;;;21.10;93.40;;;;;;4972102;28;20046;-87
2022/05/10 12:37:58;;;;;;;7.32;2.40;;;21.00;93.50;;;;;;4976110;28;20051;-87
2022/05/10 12:40:31;;;;;;;6.10;2.80;;;20.90;93.00;;;;;;4978001;28;20050;-84
2022/05/10 12:43:35;;;;;;;6.55;2.17;;;20.80;92.80;;;;;;4943966;28;20050;-83
2022/05/10 12:46:37;;;;;;;6.95;2.17;;;20.50;91.60;;;;;;4978715;28;20138;-80
2022/05/10 12:49:22;;;;;;;9.70;2.10;;;20.50;92.40;;;;;;4934919;29;20060;-85
2022/05/10 12:52:19;;;;;;;8.15;2.72;;;20.30;91.70;;;;;;4961458;28;20388;-81
2022/05/10 12:54:53;;;;;;;9.90;2.60;;;20.20;91.80;;;;;;4974188;28;20050;-84
2022/05/10 12:57:29;;;;;;;9.70;2.55;;;20.20;91.90;;;;;;4978917;28;20451;-86
2022/05/10 13:00:12;;;;;;;8.27;3.00;;;20.10;92.30;;;;;;4955976;28;20096;-81
2022/05/10 13:03:06;;;;;;;6.28;2.85;;;20.00;92.90;;;;;;4973031;28;20089;-84
2022/05/10 13:06:02;;;;;;;11.50;4.30;;;19.70;93.80;;;;;;4973390;28;20054;-85
2022/05/10 13:08:40;;;;;;;10.18;3.40;;;19.40;94.20;;;;;;4958251;28;20082;-82
2022/05/10 13:11:06;;;;;;;11.65;4.45;;;19.10;94.90;;;;;;4974962;28;20455;-85
2022/05/10 13:13:33;;;;;;;9.68;3.17;;;19.10;95.10;;;;;;4977007;28;20381;-83
2022/05/10 13:16:02;;;;;;;11.35;4.10;;;18.80;95.70;;;;;;4973210;28;20054;-83
2022/05/10 13:18:31;;;;;;;10.35;4.30;;;18.80;96.10;;;;;;4973017;28;20058;-84
2022/05/10 13:20:59;;;;;;;13.27;4.05;;;18.70;96.20;;;;;;4955033;28;20109;-85
2022/05/10 13:23:31;;;;;;;11.98;4.00;;;18.80;96.60;;;;;;4972597;28;20054;-83
2022/05/10 13:26:08;;;;;;;7.78;3.05;;;18.80;96.30;;;;;;4975729;28;20051;-87
2022/05/10 13:28:47;;;;;;;5.82;2.70;;;18.70;95.80;;;;;;4973687;28;20159;-87